createdAt,value
2023-04-21T00:01:10.762Z,20.47
2023-04-21T00:03:41.892Z,20.45
2023-04-21T00:06:10.979Z,20.46
2023-04-21T00:08:40.530Z,20.47
2023-04-21T00:11:10.927Z,20.48
2023-04-21T00:13:39.749Z,20.46
2023-04-21T00:16:09.174Z,20.46
2023-04-21T00:18:37.982Z,20.47
2023-04-21T00:21:04.877Z,20.46
2023-04-21T00:23:31.504Z,20.46
2023-04-21T00:26:03.036Z,20.46
2023-04-21T00:28:34.991Z,20.46
2023-04-21T00:31:04.080Z,20.46
2023-04-21T00:33:33.844Z,20.45
2023-04-21T00:36:00.579Z,20.45
2023-04-21T00:38:30.270Z,20.45
2023-04-21T00:40:56.895Z,20.45
2023-04-21T00:43:25.762Z,20.43
2023-04-21T00:45:52.481Z,20.43
2023-04-21T00:48:19.182Z,20.43
2023-04-21T00:50:48.001Z,20.45
2023-04-21T00:53:14.967Z,20.45
2023-04-21T00:55:42.201Z,20.44
2023-04-21T00:58:13.584Z,20.44
2023-04-21T01:00:40.298Z,20.45
2023-04-21T01:03:09.287Z,20.45
2023-04-21T01:05:36.180Z,20.44
2023-04-21T01:08:05.020Z,20.44
2023-04-21T01:10:33.839Z,20.42
2023-04-21T01:13:03.318Z,20.43
2023-04-21T01:15:34.947Z,20.43
2023-04-21T01:18:06.308Z,20.43
2023-04-21T01:20:33.259Z,20.42
2023-04-21T01:22:59.888Z,20.42
2023-04-21T01:25:28.681Z,20.41
2023-04-21T01:27:57.471Z,20.44
2023-04-21T01:30:24.179Z,20.41
2023-04-21T01:32:50.944Z,20.42
2023-04-21T01:35:17.755Z,20.40
2023-04-21T01:37:46.999Z,20.43
2023-04-21T01:40:13.951Z,20.42
2023-04-21T01:42:43.542Z,20.41
2023-04-21T01:45:14.813Z,20.41
2023-04-21T01:47:46.282Z,20.41
2023-04-21T01:50:15.703Z,20.42
2023-04-21T01:52:44.613Z,20.41
2023-04-21T01:55:15.950Z,20.41
2023-04-21T01:57:43.142Z,20.41
2023-04-21T02:00:13.298Z,20.40
2023-04-21T02:02:40.088Z,20.40
2023-04-21T02:05:07.236Z,20.40
2023-04-21T02:07:36.026Z,20.40
2023-04-21T02:10:07.364Z,20.39
2023-04-21T02:12:36.787Z,20.40
2023-04-21T02:15:06.592Z,20.40
2023-04-21T02:17:33.228Z,20.39
2023-04-21T02:20:03.986Z,20.39
2023-04-21T02:22:33.072Z,20.39
2023-04-21T02:24:59.657Z,20.39
2023-04-21T02:27:26.378Z,20.39
2023-04-21T02:29:53.007Z,20.38
2023-04-21T02:32:25.998Z,20.39
2023-04-21T02:34:52.975Z,20.38
2023-04-21T02:37:22.463Z,20.38
2023-04-21T02:39:54.283Z,20.40
2023-04-21T02:42:23.122Z,20.39
2023-04-21T02:44:49.936Z,20.38
2023-04-21T02:47:16.994Z,20.38
2023-04-21T02:49:43.726Z,20.37
2023-04-21T02:52:10.565Z,20.38
2023-04-21T02:54:37.313Z,20.37
2023-04-21T02:57:04.108Z,20.34
2023-04-21T02:59:30.857Z,20.37
2023-04-21T03:02:00.140Z,20.36
2023-04-21T03:04:27.402Z,20.37
2023-04-21T03:06:56.574Z,20.36
2023-04-21T03:09:23.279Z,20.36
2023-04-21T03:11:54.669Z,20.36
2023-04-21T03:14:23.402Z,20.36
2023-04-21T03:16:50.071Z,20.36
2023-04-21T03:19:17.014Z,20.32
2023-04-21T03:21:45.896Z,20.38
2023-04-21T03:24:19.883Z,20.36
2023-04-21T03:26:48.914Z,20.36
2023-04-21T03:29:17.947Z,20.38
2023-04-21T03:31:47.020Z,20.34
2023-04-21T03:34:16.017Z,20.37
2023-04-21T03:36:47.333Z,20.35
2023-04-21T03:41:48.281Z,20.36
2023-04-21T03:44:17.894Z,20.35
2023-04-21T03:46:44.604Z,20.35
2023-04-21T03:49:11.454Z,20.35
2023-04-21T03:51:38.105Z,20.35
2023-04-21T03:54:05.022Z,20.35
2023-04-21T03:56:33.834Z,20.35
2023-04-21T03:59:03.468Z,20.34
2023-04-21T04:01:30.106Z,20.35
2023-04-21T04:03:59.334Z,20.36
2023-04-21T04:06:33.350Z,20.35
2023-04-21T04:09:02.588Z,20.34
2023-04-21T04:11:31.565Z,20.34
2023-04-21T04:14:03.868Z,20.37
2023-04-21T04:16:31.155Z,20.31
2023-04-21T04:19:02.491Z,20.34
2023-04-21T04:21:29.400Z,20.35
2023-04-21T04:23:58.188Z,20.36
2023-04-21T04:26:27.905Z,20.35
2023-04-21T04:29:00.505Z,20.35
2023-04-21T04:31:29.309Z,20.34
2023-04-21T04:33:56.847Z,20.35
2023-04-21T04:36:27.819Z,20.35
2023-04-21T04:38:56.465Z,20.34
2023-04-21T04:41:25.339Z,20.34
2023-04-21T04:43:58.872Z,20.34
2023-04-21T04:46:28.345Z,20.35
2023-04-21T04:48:55.152Z,20.36
2023-04-21T04:51:23.225Z,20.36
2023-04-21T04:53:52.545Z,20.36
2023-04-21T04:56:21.365Z,20.36
2023-04-21T04:58:50.136Z,20.34
2023-04-21T05:01:17.052Z,20.35
2023-04-21T05:03:44.114Z,20.36
2023-04-21T05:06:11.064Z,20.34
2023-04-21T05:08:37.823Z,20.35
2023-04-21T05:11:09.176Z,20.31
2023-04-21T05:13:40.055Z,20.35
2023-04-21T05:16:10.353Z,20.36
2023-04-21T05:18:39.783Z,20.38
2023-04-21T05:21:06.457Z,20.34
2023-04-21T05:23:35.686Z,20.34
2023-04-21T05:26:07.128Z,20.39
2023-04-21T05:28:35.948Z,20.39
2023-04-21T05:31:04.781Z,20.39
2023-04-21T05:33:33.646Z,20.38
2023-04-21T05:36:00.359Z,20.39
2023-04-21T05:38:31.614Z,20.40
2023-04-21T05:41:00.650Z,20.41
2023-04-21T05:43:27.254Z,20.41
2023-04-21T05:45:54.101Z,20.41
2023-04-21T05:48:20.976Z,20.41
2023-04-21T05:50:52.351Z,20.43
2023-04-21T05:53:21.396Z,20.43
2023-04-21T05:55:50.884Z,20.43
2023-04-21T05:58:19.668Z,20.44
2023-04-21T06:00:47.917Z,20.43
2023-04-21T06:03:18.301Z,20.44
2023-04-21T06:05:47.394Z,20.45
2023-04-21T06:08:14.201Z,20.46
2023-04-21T06:10:41.626Z,20.49
2023-04-21T06:13:08.248Z,20.48
2023-04-21T06:15:37.034Z,20.50
2023-04-21T06:18:06.966Z,20.53
2023-04-21T06:20:35.844Z,20.54
2023-04-21T06:23:07.219Z,20.55
2023-04-21T06:25:36.105Z,20.58
2023-04-21T06:28:04.912Z,20.61
2023-04-21T06:30:31.565Z,20.65
2023-04-21T06:32:58.290Z,20.67
2023-04-21T06:35:27.337Z,20.69
2023-04-21T06:37:54.050Z,20.74
2023-04-21T06:40:20.818Z,20.78
2023-04-21T06:42:52.092Z,20.81
2023-04-21T06:45:18.768Z,20.85
2023-04-21T06:47:46.600Z,20.92
2023-04-21T06:50:16.088Z,20.93
2023-04-21T06:52:45.346Z,20.96
2023-04-21T06:55:17.298Z,20.93
2023-04-21T06:57:43.858Z,21.00
2023-04-21T07:00:10.932Z,21.02
2023-04-21T07:02:42.515Z,21.02
2023-04-21T07:05:09.435Z,21.06
2023-04-21T07:07:36.098Z,21.09
2023-04-21T07:10:02.748Z,21.11
2023-04-21T07:12:32.000Z,21.13
2023-04-21T07:15:01.071Z,21.12
2023-04-21T07:17:27.790Z,21.16
2023-04-21T07:19:56.538Z,21.20
2023-04-21T07:22:23.512Z,21.23
2023-04-21T07:24:52.593Z,21.26
2023-04-21T07:27:21.434Z,21.28
2023-04-21T07:29:50.511Z,21.27
2023-04-21T07:32:19.561Z,21.24
2023-04-21T07:34:48.318Z,21.22
2023-04-21T07:37:17.502Z,21.23
2023-04-21T07:39:46.407Z,21.17
2023-04-21T07:42:15.435Z,21.17
2023-04-21T07:44:44.830Z,21.21
2023-04-21T07:47:14.413Z,21.24
2023-04-21T07:49:43.924Z,21.27
2023-04-21T07:52:12.936Z,21.28
2023-04-21T07:54:39.608Z,21.28
2023-04-21T07:57:07.271Z,21.30
2023-04-21T07:59:36.101Z,21.30
2023-04-21T08:02:05.130Z,21.32
2023-04-21T08:04:32.104Z,21.32
2023-04-21T08:06:59.215Z,21.30
2023-04-21T08:09:31.732Z,21.24
2023-04-21T08:12:03.097Z,21.24
2023-04-21T08:14:34.466Z,21.25
2023-04-21T08:17:01.219Z,21.24
2023-04-21T08:19:28.103Z,21.24
2023-04-21T08:21:55.105Z,21.26
2023-04-21T08:24:24.433Z,21.27
2023-04-21T08:26:51.275Z,21.30
2023-04-21T08:29:18.045Z,21.31
2023-04-21T08:31:46.922Z,21.33
2023-04-21T08:34:13.882Z,21.36
2023-04-21T08:36:43.060Z,21.40
2023-04-21T08:39:11.874Z,21.37
2023-04-21T08:41:41.654Z,21.35
2023-04-21T08:44:09.456Z,21.34
2023-04-21T08:46:36.435Z,21.38
2023-04-21T08:49:06.363Z,21.42
2023-04-21T08:51:35.343Z,21.45
2023-04-21T08:54:02.038Z,21.47
2023-04-21T08:56:30.906Z,21.48
2023-04-21T08:58:59.738Z,21.50
2023-04-21T09:01:26.614Z,21.47
2023-04-21T09:03:55.733Z,21.51
2023-04-21T09:06:24.915Z,21.55
2023-04-21T09:08:57.937Z,21.55
2023-04-21T09:11:24.644Z,21.58
2023-04-21T09:13:53.411Z,21.59
2023-04-21T09:16:21.718Z,21.60
2023-04-21T09:18:50.073Z,21.61
2023-04-21T09:21:18.258Z,21.65
2023-04-21T09:23:52.364Z,21.58
2023-04-21T09:26:20.243Z,21.53
2023-04-21T09:28:49.750Z,21.51
2023-04-21T09:31:19.804Z,21.51
2023-04-21T09:36:24.027Z,21.62
2023-04-21T09:41:28.490Z,21.55
2023-04-21T09:44:01.382Z,21.57
2023-04-21T09:46:29.240Z,21.52
2023-04-21T09:48:58.560Z,21.58
2023-04-21T09:51:32.834Z,21.56
2023-04-21T09:54:29.265Z,21.62
2023-04-21T09:57:17.049Z,21.51
2023-04-21T09:59:48.458Z,21.58
2023-04-21T10:02:15.272Z,21.51
2023-04-21T10:04:43.526Z,21.50
2023-04-21T10:07:11.214Z,21.45
2023-04-21T10:09:49.787Z,21.43
2023-04-21T10:12:18.748Z,21.45
2023-04-21T10:14:47.617Z,21.42
2023-04-21T10:17:17.928Z,21.39
2023-04-21T10:19:52.085Z,21.39
2023-04-21T10:22:34.374Z,21.39
2023-04-21T10:25:03.203Z,21.39
2023-04-21T10:27:44.779Z,21.38
2023-04-21T10:30:29.100Z,21.38
2023-04-21T10:33:05.925Z,21.33
2023-04-21T10:35:58.344Z,21.34
2023-04-21T10:38:41.484Z,21.34
2023-04-21T10:41:28.127Z,21.31
2023-04-21T10:44:00.010Z,21.33
2023-04-21T10:46:37.089Z,21.35
2023-04-21T10:49:20.990Z,21.38
2023-04-21T10:52:00.279Z,21.32
2023-04-21T10:54:28.326Z,21.30
2023-04-21T10:56:59.628Z,21.29
2023-04-21T10:59:29.409Z,21.28
2023-04-21T11:01:56.148Z,21.25
2023-04-21T11:04:25.314Z,21.24
2023-04-21T11:07:11.844Z,21.24
2023-04-21T11:09:39.488Z,21.25
2023-04-21T11:12:10.867Z,21.25
2023-04-21T11:14:38.910Z,21.27
2023-04-21T11:17:06.020Z,21.25
2023-04-21T11:19:35.153Z,21.23
2023-04-21T11:22:04.259Z,21.21
2023-04-21T11:24:34.260Z,21.20
2023-04-21T11:27:02.228Z,21.21
2023-04-21T11:29:31.633Z,21.23
2023-04-21T11:31:59.306Z,21.22
2023-04-21T11:34:29.156Z,21.22
2023-04-21T11:36:56.401Z,21.22
2023-04-21T11:39:26.085Z,21.22
2023-04-21T11:41:54.984Z,21.21
2023-04-21T11:44:50.123Z,21.20
2023-04-21T11:47:21.156Z,21.17
2023-04-21T11:50:07.971Z,21.17
2023-04-21T11:52:37.581Z,21.14
2023-04-21T11:55:22.729Z,21.15
2023-04-21T11:57:50.183Z,21.16
2023-04-21T12:00:17.325Z,21.12
2023-04-21T12:02:44.202Z,21.15
2023-04-21T12:05:14.561Z,21.14
2023-04-21T12:07:44.112Z,21.15
2023-04-21T12:10:14.847Z,21.14
2023-04-21T12:12:42.297Z,21.14
2023-04-21T12:15:10.937Z,21.15
2023-04-21T12:17:56.008Z,21.13
2023-04-21T12:20:26.565Z,21.13
2023-04-21T12:22:56.520Z,21.12
2023-04-21T12:25:23.270Z,21.14
2023-04-21T12:27:49.829Z,21.14
2023-04-21T12:30:17.124Z,21.13
2023-04-21T12:32:43.881Z,21.12
2023-04-21T12:35:11.049Z,21.13
2023-04-21T12:37:37.778Z,21.13
2023-04-21T12:40:07.107Z,21.12
2023-04-21T12:42:35.275Z,21.12
2023-04-21T12:45:05.400Z,21.12
2023-04-21T12:47:32.201Z,21.11
2023-04-21T12:50:06.738Z,21.11
2023-04-21T12:52:36.041Z,21.13
2023-04-21T12:55:02.726Z,21.12
2023-04-21T12:57:32.044Z,21.11
2023-04-21T12:59:58.724Z,21.11
2023-04-21T13:02:25.496Z,21.11
2023-04-21T13:04:52.228Z,21.11
2023-04-21T13:07:21.420Z,21.12
2023-04-21T13:09:50.396Z,21.12
2023-04-21T13:12:17.439Z,21.12
2023-04-21T13:14:46.346Z,21.11
2023-04-21T13:17:15.414Z,21.11
2023-04-21T13:19:42.271Z,21.07
2023-04-21T13:22:09.019Z,21.12
2023-04-21T13:24:38.096Z,21.11
2023-04-21T13:27:04.874Z,21.13
2023-04-21T13:29:34.387Z,21.10
2023-04-21T13:32:02.364Z,21.12
2023-04-21T13:34:31.313Z,21.12
2023-04-21T13:37:00.454Z,21.13
2023-04-21T13:39:29.371Z,21.11
2023-04-21T13:41:56.810Z,21.12
2023-04-21T13:44:23.588Z,21.13
2023-04-21T13:46:54.014Z,21.11
2023-04-21T13:49:21.143Z,21.12
2023-04-21T13:51:47.978Z,21.12
2023-04-21T13:54:14.755Z,21.12
2023-04-21T13:56:43.704Z,21.12
2023-04-21T13:59:11.028Z,21.12
2023-04-21T14:01:41.712Z,21.13
2023-04-21T14:04:10.880Z,21.10
2023-04-21T14:06:39.939Z,21.13
2023-04-21T14:09:06.636Z,21.13
2023-04-21T14:11:36.542Z,21.12
2023-04-21T14:14:09.605Z,21.12
2023-04-21T14:16:37.085Z,21.12
2023-04-21T14:19:03.942Z,21.12
2023-04-21T14:21:31.823Z,21.12
2023-04-21T14:23:58.897Z,21.11
2023-04-21T14:26:25.741Z,21.11
2023-04-21T14:28:54.650Z,21.11
2023-04-21T14:31:22.443Z,21.09
2023-04-21T14:33:49.282Z,21.11
2023-04-21T14:36:18.501Z,21.12
2023-04-21T14:38:47.468Z,21.11
2023-04-21T14:41:32.951Z,21.10
2023-04-21T14:44:00.427Z,21.10
2023-04-21T14:46:29.439Z,21.09
2023-04-21T14:48:58.965Z,21.08
2023-04-21T14:51:25.651Z,21.05
2023-04-21T14:53:52.501Z,21.08
2023-04-21T14:56:20.294Z,21.08
2023-04-21T14:58:46.983Z,21.06
2023-04-21T15:01:16.038Z,21.08
2023-04-21T15:03:45.129Z,21.08
2023-04-21T15:06:11.985Z,21.08
2023-04-21T15:08:40.872Z,21.07
2023-04-21T15:11:07.724Z,21.08
2023-04-21T15:13:36.586Z,21.08
2023-04-21T15:16:06.144Z,21.07
2023-04-21T15:18:35.132Z,21.07
2023-04-21T15:21:04.923Z,21.07
2023-04-21T15:23:33.754Z,21.07
2023-04-21T15:26:00.610Z,21.07
2023-04-21T15:28:27.252Z,21.08
2023-04-21T15:30:54.164Z,21.06
2023-04-21T15:33:20.941Z,21.06
2023-04-21T15:35:50.771Z,21.07
2023-04-21T15:38:17.505Z,21.08
2023-04-21T15:40:59.165Z,21.06
2023-04-21T15:43:26.687Z,21.07
2023-04-21T15:45:55.939Z,21.07
2023-04-21T15:48:24.916Z,21.08
2023-04-21T15:50:51.951Z,21.06
2023-04-21T15:53:20.129Z,21.07
2023-04-21T15:55:47.356Z,21.02
2023-04-21T15:58:14.157Z,21.08
2023-04-21T16:00:46.093Z,21.06
2023-04-21T16:03:13.102Z,21.07
2023-04-21T16:05:42.493Z,21.07
2023-04-21T16:08:14.083Z,21.05
2023-04-21T16:10:43.183Z,21.05
2023-04-21T16:13:09.838Z,21.07
2023-04-21T16:15:36.817Z,21.05
2023-04-21T16:18:06.576Z,21.06
2023-04-21T16:20:33.685Z,21.05
2023-04-21T16:23:00.455Z,21.05
2023-04-21T16:25:29.513Z,21.05
2023-04-21T16:27:56.237Z,21.05
2023-04-21T16:30:22.976Z,21.04
2023-04-21T16:32:49.719Z,21.05
2023-04-21T16:35:18.607Z,21.04
2023-04-21T16:37:47.678Z,21.04
2023-04-21T16:40:16.573Z,21.04
2023-04-21T16:42:45.663Z,21.03
2023-04-21T16:45:12.521Z,21.03
2023-04-21T16:47:42.463Z,21.02
2023-04-21T16:50:12.218Z,21.03
2023-04-21T16:52:41.311Z,21.04
2023-04-21T16:55:08.791Z,21.03
2023-04-21T16:57:35.529Z,21.03
2023-04-21T17:00:05.322Z,21.02
2023-04-21T17:02:32.162Z,21.02
2023-04-21T17:04:58.996Z,21.02
2023-04-21T17:07:25.730Z,21.01
2023-04-21T17:09:54.651Z,21.02
2023-04-21T17:12:23.521Z,21.01
2023-04-21T17:14:50.440Z,21.01
2023-04-21T17:17:17.695Z,21.01
2023-04-21T17:19:46.740Z,21.01
2023-04-21T17:22:15.729Z,21.01
2023-04-21T17:24:53.413Z,20.99
2023-04-21T17:27:21.284Z,20.99
2023-04-21T17:29:50.249Z,20.99
2023-04-21T17:32:19.892Z,20.99
2023-04-21T17:34:46.646Z,20.98
2023-04-21T17:37:16.588Z,20.99
2023-04-21T17:39:45.472Z,20.98
2023-04-21T17:42:12.094Z,20.96
2023-04-21T17:44:41.027Z,20.98
2023-04-21T17:47:11.324Z,20.96
2023-04-21T17:49:41.079Z,20.96
2023-04-21T17:52:07.836Z,20.96
2023-04-21T17:54:37.206Z,20.96
2023-04-21T17:57:06.867Z,20.97
2023-04-21T17:59:33.636Z,20.97
2023-04-21T18:02:01.070Z,20.97
2023-04-21T18:04:30.824Z,20.95
2023-04-21T18:06:59.039Z,20.95
2023-04-21T18:09:26.070Z,20.95
2023-04-21T18:11:55.151Z,20.96
2023-04-21T18:14:22.568Z,20.95
2023-04-21T18:16:49.390Z,20.95
2023-04-21T18:19:17.233Z,20.94
2023-04-21T18:21:46.438Z,20.94
2023-04-21T18:24:15.654Z,20.90
2023-04-21T18:26:45.284Z,20.94
2023-04-21T18:29:17.593Z,20.93
2023-04-21T18:31:44.453Z,20.94
2023-04-21T18:34:14.602Z,20.92
2023-04-21T18:36:44.190Z,20.92
2023-04-21T18:39:11.158Z,20.93
2023-04-21T18:41:38.171Z,20.92
2023-04-21T18:44:07.655Z,20.93
2023-04-21T18:46:34.492Z,20.93
2023-04-21T18:49:01.201Z,20.91
2023-04-21T18:51:31.118Z,20.92
2023-04-21T18:53:58.053Z,20.92
2023-04-21T18:56:26.849Z,20.91
2023-04-21T18:58:53.629Z,20.92
2023-04-21T19:01:25.227Z,20.90
2023-04-21T19:03:52.139Z,20.93
2023-04-21T19:06:21.902Z,20.92
2023-04-21T19:08:51.216Z,20.91
2023-04-21T19:11:17.967Z,20.88
2023-04-21T19:13:48.288Z,20.91
2023-04-21T19:16:16.698Z,20.85
2023-04-21T19:18:43.726Z,20.91
2023-04-21T19:21:13.901Z,20.88
2023-04-21T19:23:46.456Z,20.90
2023-04-21T19:26:13.554Z,20.90
2023-04-21T19:28:41.179Z,20.88
2023-04-21T19:31:07.912Z,20.88
2023-04-21T19:33:35.030Z,20.90
2023-04-21T19:36:02.179Z,20.88
2023-04-21T19:38:33.603Z,20.89
2023-04-21T19:41:00.279Z,20.89
2023-04-21T19:43:29.571Z,20.86
2023-04-21T19:45:58.521Z,20.90
2023-04-21T19:48:25.729Z,20.90
2023-04-21T19:50:52.403Z,20.89
2023-04-21T19:53:22.375Z,20.90
2023-04-21T19:55:52.564Z,20.88
2023-04-21T19:58:38.806Z,20.89
2023-04-21T20:01:07.316Z,20.90
2023-04-21T20:03:36.618Z,20.88
2023-04-21T20:06:04.943Z,20.87
2023-04-21T20:08:31.719Z,20.88
2023-04-21T20:10:58.346Z,20.88
2023-04-21T20:13:27.346Z,20.90
2023-04-21T20:15:58.776Z,20.88
2023-04-21T20:18:25.541Z,20.86
2023-04-21T20:20:52.239Z,20.87
2023-04-21T20:23:21.737Z,20.88
2023-04-21T20:25:51.507Z,20.87
2023-04-21T20:28:20.888Z,20.86
2023-04-21T20:30:49.765Z,20.86
2023-04-21T20:33:18.803Z,20.87
2023-04-21T20:35:50.108Z,20.85
2023-04-21T20:38:21.472Z,20.84
2023-04-21T20:40:50.159Z,20.86
2023-04-21T20:43:18.957Z,20.87
2023-04-21T20:45:47.234Z,20.87
2023-04-21T20:48:13.890Z,20.85
2023-04-21T20:50:41.030Z,20.85
2023-04-21T20:53:08.890Z,20.86
2023-04-21T20:55:37.866Z,20.86
2023-04-21T20:58:04.847Z,20.84
2023-04-21T21:00:36.386Z,20.84
2023-04-21T21:03:04.751Z,20.84
2023-04-21T21:05:34.165Z,20.83
2023-04-21T21:08:03.860Z,20.82
2023-04-21T21:10:30.569Z,20.83
2023-04-21T21:13:00.800Z,20.82
2023-04-21T21:15:30.992Z,20.84
2023-04-21T21:18:00.000Z,20.82
2023-04-21T21:20:26.833Z,20.79
2023-04-21T21:22:53.563Z,20.83
2023-04-21T21:25:20.318Z,20.82
2023-04-21T21:27:49.115Z,20.83
2023-04-21T21:30:21.035Z,20.83
2023-04-21T21:32:48.600Z,20.83
2023-04-21T21:35:18.270Z,20.82
2023-04-21T21:37:47.160Z,20.82
2023-04-21T21:40:13.764Z,20.83
2023-04-21T21:42:42.581Z,20.82
2023-04-21T21:45:11.222Z,20.82
2023-04-21T21:47:41.642Z,20.81
2023-04-21T21:50:12.618Z,20.80
2023-04-21T21:52:39.387Z,20.80
2023-04-21T21:55:06.759Z,20.81
2023-04-21T21:57:35.969Z,20.80
2023-04-21T22:00:03.892Z,20.81
2023-04-21T22:02:31.142Z,20.81
2023-04-21T22:05:00.211Z,20.78
2023-04-21T22:07:27.538Z,20.80
2023-04-21T22:09:54.199Z,20.79
2023-04-21T22:12:23.120Z,20.79
2023-04-21T22:14:52.844Z,20.78
2023-04-21T22:17:22.757Z,20.79
2023-04-21T22:19:49.749Z,20.77
2023-04-21T22:22:18.932Z,20.77
2023-04-21T22:24:47.903Z,20.78
2023-04-21T22:27:14.553Z,20.77
2023-04-21T22:29:41.942Z,20.75
2023-04-21T22:32:09.431Z,20.77
2023-04-21T22:34:36.212Z,20.77
2023-04-21T22:37:05.635Z,20.77
2023-04-21T22:39:32.309Z,20.76
2023-04-21T22:41:59.095Z,20.76
2023-04-21T22:44:25.836Z,20.75
2023-04-21T22:46:52.491Z,20.76
2023-04-21T22:49:21.651Z,20.75
2023-04-21T22:51:51.618Z,20.75
2023-04-21T22:54:18.351Z,20.76
2023-04-21T22:56:45.108Z,20.75
2023-04-21T22:59:11.963Z,20.75
2023-04-21T23:01:40.877Z,20.75
2023-04-21T23:04:09.844Z,20.75
2023-04-21T23:06:41.865Z,20.73
2023-04-21T23:09:13.177Z,20.74
2023-04-21T23:11:42.245Z,20.73
2023-04-21T23:14:11.288Z,20.73
2023-04-21T23:16:40.337Z,20.73
2023-04-21T23:19:07.096Z,20.73
2023-04-21T23:21:36.137Z,20.73
2023-04-21T23:24:02.766Z,20.72
2023-04-21T23:26:31.601Z,20.73
2023-04-21T23:28:58.329Z,20.72
2023-04-21T23:31:26.060Z,20.71
2023-04-21T23:33:52.814Z,20.72
2023-04-21T23:36:19.590Z,20.70
2023-04-21T23:38:46.280Z,20.72
2023-04-21T23:41:15.159Z,20.71
2023-04-21T23:43:41.829Z,20.69
2023-04-21T23:46:09.074Z,20.71
2023-04-21T23:48:38.084Z,20.70
2023-04-21T23:51:07.590Z,20.70
2023-04-21T23:53:34.593Z,20.69
2023-04-21T23:56:01.338Z,20.69
2023-04-21T23:58:30.328Z,20.69
